Halibut Cove, Alaska
Current Conditions -  °F | °C
As of 12:53 AM on Sunday 23 Nov 2014 (Local Time) from PAHO Reporting Station
Overcast Overcast  
Wind Chill: 32°   Ceiling: 6000
Heat Index: 36°   Visibility: 10mi
Dew Point: 32°   Wind: 5mph
Humidity: 86%   Direction: 90°E
Pressure: 29.26"   Gusts: NA
Location:  59.7153°N, 150.773°W
Report Text: PAHO 230953Z AUTO 09004KT 10SM SCT039 BKN060 OVC075 02/00 A2926 RMK AO2 UPE23 SLP907 P0001 T00220000 TSNO $
Loading
Personal Weather Stations






























Interactive Weather Map New forecast layout! Learn more

10-Day Weather Forecast

Advertisements
Track Severe Weather on mobile